createdAt,value
2022-11-29T00:00:54.059Z,24.80
2022-11-29T00:03:25.099Z,25.30
2022-11-29T00:05:56.991Z,25.46
2022-11-29T00:08:27.797Z,25.04
2022-11-29T00:10:59.084Z,24.56
2022-11-29T00:13:30.304Z,24.63
2022-11-29T00:16:11.899Z,24.16
2022-11-29T00:18:43.048Z,24.59
2022-11-29T00:21:14.096Z,24.52
2022-11-29T00:23:45.413Z,24.53
2022-11-29T00:26:16.747Z,24.54
2022-11-29T00:28:47.746Z,24.59
2022-11-29T00:31:20.221Z,24.47
2022-11-29T00:33:52.185Z,24.20
2022-11-29T00:36:23.287Z,23.73
2022-11-29T00:38:55.214Z,24.32
2022-11-29T00:41:26.268Z,23.86
2022-11-29T00:43:57.503Z,24.16
2022-11-29T00:46:28.514Z,24.06
2022-11-29T00:48:59.693Z,23.70
2022-11-29T00:51:30.414Z,23.42
2022-11-29T00:54:01.609Z,23.29
2022-11-29T00:56:32.979Z,23.07
2022-11-29T00:59:03.953Z,23.19
2022-11-29T01:01:35.587Z,23.67
2022-11-29T01:04:06.702Z,24.15
2022-11-29T01:06:37.689Z,23.52
2022-11-29T01:09:08.777Z,24.22
2022-11-29T01:11:39.760Z,23.71
2022-11-29T01:14:12.421Z,23.89
2022-11-29T01:16:43.460Z,23.79
2022-11-29T01:19:14.347Z,24.51
2022-11-29T01:21:45.109Z,25.95
2022-11-29T01:24:16.313Z,25.38
2022-11-29T01:26:47.418Z,24.71
2022-11-29T01:29:18.203Z,25.03
2022-11-29T01:31:49.421Z,24.81
2022-11-29T01:34:20.463Z,25.30
2022-11-29T01:36:51.732Z,25.07
2022-11-29T01:39:23.041Z,24.88
2022-11-29T01:41:54.015Z,24.01
2022-11-29T01:44:24.821Z,23.90
2022-11-29T01:46:56.836Z,23.89
2022-11-29T01:49:43.792Z,24.05
2022-11-29T01:52:24.030Z,23.55
2022-11-29T01:54:59.094Z,23.67
2022-11-29T01:57:31.005Z,23.24
2022-11-29T02:00:08.176Z,23.26
2022-11-29T02:02:49.769Z,23.25
2022-11-29T02:05:21.453Z,23.69
2022-11-29T02:07:54.538Z,23.61
2022-11-29T02:10:55.229Z,23.44
2022-11-29T02:13:39.843Z,22.88
2022-11-29T02:16:47.716Z,23.72
2022-11-29T02:19:18.554Z,23.40
2022-11-29T02:22:17.558Z,23.46
2022-11-29T02:25:05.509Z,23.53
2022-11-29T02:27:52.074Z,23.14
2022-11-29T02:30:27.502Z,22.58
2022-11-29T02:33:09.737Z,22.67
2022-11-29T02:35:58.151Z,22.51
2022-11-29T02:38:44.318Z,22.49
2022-11-29T02:41:43.512Z,22.97
2022-11-29T02:44:39.105Z,22.76
2022-11-29T02:47:34.658Z,22.65
2022-11-29T02:50:27.041Z,22.47
2022-11-29T02:53:16.669Z,22.39
2022-11-29T02:56:13.139Z,22.29
2022-11-29T02:58:56.795Z,22.32
2022-11-29T03:01:44.311Z,22.49
2022-11-29T03:04:47.336Z,22.27
2022-11-29T03:07:27.814Z,22.17
2022-11-29T03:10:07.846Z,22.48
2022-11-29T03:12:44.196Z,22.54
2022-11-29T03:15:27.233Z,21.80
2022-11-29T03:18:05.654Z,22.05
2022-11-29T03:20:45.564Z,22.41
2022-11-29T03:23:26.651Z,22.22
2022-11-29T03:26:00.633Z,22.53
2022-11-29T03:28:40.481Z,21.86
2022-11-29T03:31:17.509Z,21.87
2022-11-29T03:33:52.847Z,21.98
2022-11-29T03:36:52.660Z,22.18
2022-11-29T03:39:32.471Z,22.11
2022-11-29T03:42:07.326Z,21.97
2022-11-29T03:44:55.129Z,22.40
2022-11-29T03:47:36.047Z,22.17
2022-11-29T03:50:08.439Z,22.11
2022-11-29T03:53:02.416Z,21.94
2022-11-29T03:55:59.222Z,22.45
2022-11-29T03:58:48.322Z,21.64
2022-11-29T04:01:52.848Z,21.39
2022-11-29T04:04:32.705Z,21.45
2022-11-29T04:07:18.923Z,21.97
2022-11-29T04:10:19.917Z,22.14
2022-11-29T04:13:21.860Z,22.50
2022-11-29T04:16:13.146Z,22.58
2022-11-29T04:19:05.843Z,22.71
2022-11-29T04:22:02.320Z,22.57
2022-11-29T04:24:42.142Z,22.63
2022-11-29T04:27:25.750Z,22.72
2022-11-29T04:30:16.375Z,22.28
2022-11-29T04:33:17.432Z,21.91
2022-11-29T04:36:12.632Z,21.70
2022-11-29T04:39:09.967Z,21.96
2022-11-29T04:42:07.160Z,22.06
2022-11-29T04:44:57.263Z,22.09
2022-11-29T04:48:15.503Z,22.17
2022-11-29T04:51:06.203Z,22.06
2022-11-29T04:53:52.198Z,22.11
2022-11-29T04:56:50.340Z,21.85
2022-11-29T04:59:45.203Z,21.74
2022-11-29T05:02:58.414Z,21.83
2022-11-29T05:06:05.282Z,21.62
2022-11-29T05:09:01.786Z,21.51
2022-11-29T05:11:40.605Z,21.74
2022-11-29T05:14:33.680Z,21.43
2022-11-29T05:17:33.798Z,21.61
2022-11-29T05:20:32.198Z,21.67
2022-11-29T05:23:12.176Z,21.24
2022-11-29T05:26:01.776Z,21.29
2022-11-29T05:28:35.797Z,21.17
2022-11-29T05:31:14.946Z,20.95
2022-11-29T05:34:00.780Z,21.10
2022-11-29T05:36:52.896Z,20.80
2022-11-29T05:39:46.917Z,20.72
2022-11-29T05:43:01.118Z,20.98
2022-11-29T05:46:06.222Z,21.05
2022-11-29T05:48:49.154Z,21.04
2022-11-29T05:51:25.357Z,20.85
2022-11-29T05:53:56.771Z,20.99
2022-11-29T05:56:57.648Z,21.02
2022-11-29T05:59:32.555Z,20.73
2022-11-29T06:02:32.753Z,20.88
2022-11-29T06:05:43.219Z,20.47
2022-11-29T06:08:19.126Z,20.76
2022-11-29T06:11:03.549Z,20.75
2022-11-29T06:13:56.924Z,20.45
2022-11-29T06:17:03.537Z,20.50
2022-11-29T06:20:18.542Z,20.70
2022-11-29T06:23:07.626Z,20.24
2022-11-29T06:26:06.582Z,20.25
2022-11-29T06:29:15.604Z,20.25
2022-11-29T06:31:53.277Z,20.36
2022-11-29T06:34:33.800Z,20.32
2022-11-29T06:37:34.284Z,20.45
2022-11-29T06:40:05.926Z,20.19
2022-11-29T06:42:36.064Z,20.16
2022-11-29T06:45:08.018Z,20.32
2022-11-29T06:47:39.568Z,20.16
2022-11-29T06:50:48.197Z,20.19
2022-11-29T06:53:33.109Z,20.07
2022-11-29T06:56:29.097Z,20.12
2022-11-29T06:59:26.014Z,19.97
2022-11-29T07:02:21.986Z,20.09
2022-11-29T07:05:23.325Z,20.11
2022-11-29T07:08:00.317Z,19.82
2022-11-29T07:10:36.126Z,19.83
2022-11-29T07:13:07.584Z,19.93
2022-11-29T07:15:39.362Z,19.83
2022-11-29T07:18:36.868Z,19.96
2022-11-29T07:21:38.242Z,19.87
2022-11-29T07:24:30.965Z,19.80
2022-11-29T07:27:20.142Z,19.76
2022-11-29T07:30:17.072Z,19.74
2022-11-29T07:32:58.761Z,19.72
2022-11-29T07:35:40.317Z,19.72
2022-11-29T07:38:39.846Z,19.68
2022-11-29T07:41:20.161Z,19.63
2022-11-29T07:44:26.223Z,19.68
2022-11-29T07:46:57.206Z,19.61
2022-11-29T07:49:28.198Z,19.54
2022-11-29T07:51:59.624Z,19.50
2022-11-29T07:54:31.133Z,19.41
2022-11-29T07:57:02.061Z,19.50
2022-11-29T07:59:33.505Z,19.45
2022-11-29T08:02:10.186Z,19.50
2022-11-29T08:04:45.954Z,19.64
2022-11-29T08:07:17.368Z,19.64
2022-11-29T08:09:48.449Z,19.67
2022-11-29T08:12:19.225Z,19.54
2022-11-29T08:14:50.312Z,19.71
2022-11-29T08:17:21.253Z,19.62
2022-11-29T08:19:52.435Z,19.55
2022-11-29T08:22:23.745Z,19.43
2022-11-29T08:24:54.873Z,19.35
2022-11-29T08:27:26.186Z,19.65
2022-11-29T08:29:57.423Z,19.40
2022-11-29T08:32:29.324Z,19.50
2022-11-29T08:35:00.572Z,19.42
2022-11-29T08:37:34.208Z,19.24
2022-11-29T08:40:06.116Z,18.94
2022-11-29T08:42:37.309Z,19.08
2022-11-29T08:45:08.890Z,18.97
2022-11-29T08:47:42.555Z,18.88
2022-11-29T08:50:17.359Z,18.90
2022-11-29T08:53:08.364Z,18.99
2022-11-29T08:55:44.174Z,18.83
2022-11-29T08:58:16.938Z,19.01
2022-11-29T09:00:48.466Z,18.94
2022-11-29T09:03:38.321Z,18.92
2022-11-29T09:06:12.691Z,18.78
2022-11-29T09:08:45.225Z,18.74
2022-11-29T09:11:19.399Z,18.50
2022-11-29T09:13:52.984Z,18.67
2022-11-29T09:16:26.938Z,18.50
2022-11-29T09:18:58.103Z,18.51
2022-11-29T09:21:29.862Z,18.16
2022-11-29T09:24:07.687Z,18.31
2022-11-29T09:26:42.129Z,18.12
2022-11-29T09:29:13.518Z,18.00
2022-11-29T09:31:48.088Z,18.08
2022-11-29T09:34:22.441Z,17.89
2022-11-29T09:36:53.784Z,17.78
2022-11-29T09:39:25.157Z,17.66
2022-11-29T09:42:11.323Z,17.60
2022-11-29T09:44:48.755Z,17.44
2022-11-29T09:47:41.154Z,17.37
2022-11-29T09:50:28.192Z,17.27
2022-11-29T09:53:33.273Z,17.38
2022-11-29T09:56:25.029Z,17.39
2022-11-29T09:59:20.281Z,17.40
2022-11-29T10:01:59.710Z,17.32
2022-11-29T10:04:37.861Z,17.42
2022-11-29T10:07:21.221Z,17.38
2022-11-29T10:09:54.704Z,17.46
2022-11-29T10:12:38.513Z,17.32
2022-11-29T10:15:15.571Z,17.48
2022-11-29T10:18:19.275Z,17.35
2022-11-29T10:20:52.950Z,17.33
2022-11-29T10:23:50.320Z,17.32
2022-11-29T10:26:22.272Z,17.36
2022-11-29T10:28:56.704Z,17.11
2022-11-29T10:31:50.720Z,16.95
2022-11-29T10:34:24.246Z,17.16
2022-11-29T10:37:04.119Z,16.96
2022-11-29T10:39:46.092Z,16.73
2022-11-29T10:42:42.947Z,16.65
2022-11-29T10:45:39.201Z,16.73
2022-11-29T10:48:12.837Z,16.52
2022-11-29T10:50:45.838Z,16.36
2022-11-29T10:53:39.764Z,16.51
2022-11-29T10:56:32.632Z,16.54
2022-11-29T10:59:15.412Z,16.61
2022-11-29T11:01:46.449Z,16.63
2022-11-29T11:04:24.251Z,16.46
2022-11-29T11:06:58.265Z,16.24
2022-11-29T11:09:50.943Z,16.25
2022-11-29T11:12:25.211Z,16.61
2022-11-29T11:15:15.523Z,16.58
2022-11-29T11:18:22.788Z,16.72
2022-11-29T11:21:00.438Z,16.50
2022-11-29T11:23:39.935Z,16.71
2022-11-29T11:26:15.532Z,16.73
2022-11-29T11:28:46.646Z,16.37
2022-11-29T11:31:18.590Z,16.47
2022-11-29T11:33:50.127Z,16.52
2022-11-29T11:36:26.416Z,16.57
2022-11-29T11:39:13.943Z,16.53
2022-11-29T11:42:03.381Z,16.45
2022-11-29T11:44:58.329Z,16.44
2022-11-29T11:47:31.645Z,16.50
2022-11-29T11:50:05.556Z,16.50
2022-11-29T11:52:48.879Z,16.43
2022-11-29T11:55:24.809Z,16.55
2022-11-29T11:58:23.615Z,16.48
2022-11-29T12:01:04.327Z,16.60
2022-11-29T12:03:50.750Z,16.64
2022-11-29T12:06:31.222Z,16.50
2022-11-29T12:09:36.850Z,16.47
2022-11-29T12:12:11.467Z,16.53
2022-11-29T12:14:51.803Z,16.58
2022-11-29T12:17:51.753Z,16.55
2022-11-29T12:20:58.237Z,16.37
2022-11-29T12:23:54.090Z,16.45
2022-11-29T12:26:57.888Z,16.60
2022-11-29T12:29:32.130Z,16.68
2022-11-29T12:32:21.705Z,16.66
2022-11-29T12:35:00.950Z,16.67
2022-11-29T12:37:36.349Z,16.61
2022-11-29T12:40:18.544Z,16.69
2022-11-29T12:43:04.152Z,16.65
2022-11-29T12:45:35.778Z,16.72
2022-11-29T12:48:21.640Z,16.69
2022-11-29T12:51:04.540Z,16.65
2022-11-29T12:53:50.060Z,16.71
2022-11-29T12:56:31.752Z,16.70
2022-11-29T12:59:27.554Z,16.66
2022-11-29T13:02:16.967Z,16.64
2022-11-29T13:05:06.579Z,16.80
2022-11-29T13:07:56.135Z,16.78
2022-11-29T13:10:36.387Z,16.74
2022-11-29T13:13:16.344Z,16.88
2022-11-29T13:16:14.682Z,16.75
2022-11-29T13:18:55.647Z,16.82
2022-11-29T13:22:15.090Z,16.71
2022-11-29T13:24:53.000Z,16.89
2022-11-29T13:27:54.801Z,16.86
2022-11-29T13:30:26.228Z,16.82
2022-11-29T13:32:57.334Z,16.88
2022-11-29T13:35:37.266Z,16.76
2022-11-29T13:38:37.664Z,16.74
2022-11-29T13:41:10.991Z,16.85
2022-11-29T13:44:09.478Z,16.87
2022-11-29T13:46:46.209Z,16.79
2022-11-29T13:49:25.582Z,16.80
2022-11-29T13:52:07.425Z,16.85
2022-11-29T13:54:38.237Z,16.75
2022-11-29T13:57:11.321Z,16.86
2022-11-29T13:59:47.378Z,16.82
2022-11-29T14:02:29.853Z,16.82
2022-11-29T14:05:01.034Z,16.84
2022-11-29T14:07:34.636Z,16.79
2022-11-29T14:10:11.568Z,16.94
2022-11-29T14:12:50.873Z,16.89
2022-11-29T14:15:25.897Z,16.89
2022-11-29T14:18:09.555Z,16.88
2022-11-29T14:20:55.137Z,16.76
2022-11-29T14:23:45.947Z,16.84
2022-11-29T14:26:28.989Z,16.89
2022-11-29T14:29:00.425Z,16.86
2022-11-29T14:31:51.571Z,16.86
2022-11-29T14:34:30.261Z,16.88
2022-11-29T14:37:30.742Z,16.94
2022-11-29T14:40:05.036Z,17.02
2022-11-29T14:42:36.215Z,16.96
2022-11-29T14:45:49.390Z,16.94
2022-11-29T14:48:32.327Z,17.00
2022-11-29T14:51:15.111Z,16.92
2022-11-29T14:53:47.746Z,16.96
2022-11-29T14:56:34.443Z,16.95
2022-11-29T14:59:42.704Z,16.88
2022-11-29T15:02:43.987Z,16.87
2022-11-29T15:05:23.705Z,16.88
2022-11-29T15:08:16.381Z,16.92
2022-11-29T15:11:03.231Z,16.99
2022-11-29T15:13:37.098Z,16.99
2022-11-29T15:16:26.320Z,17.02
2022-11-29T15:19:15.877Z,17.03
2022-11-29T15:21:56.842Z,17.02
2022-11-29T15:24:28.879Z,17.03
2022-11-29T15:27:02.001Z,17.05
2022-11-29T15:29:34.103Z,17.04
2022-11-29T15:32:05.962Z,17.06
2022-11-29T15:34:44.186Z,17.08
2022-11-29T15:37:26.231Z,17.18
2022-11-29T15:40:20.525Z,17.23
2022-11-29T15:43:14.015Z,17.30
2022-11-29T15:45:53.582Z,17.35
2022-11-29T15:48:27.541Z,17.39
2022-11-29T15:51:10.958Z,17.36
2022-11-29T15:53:51.946Z,17.48
2022-11-29T15:56:37.634Z,17.47
2022-11-29T15:59:21.120Z,17.43
2022-11-29T16:01:54.458Z,17.47
2022-11-29T16:04:28.714Z,17.48
2022-11-29T16:07:01.468Z,17.52
2022-11-29T16:09:42.931Z,17.50
2022-11-29T16:12:19.031Z,17.57
2022-11-29T16:14:57.338Z,17.52
2022-11-29T16:17:37.732Z,17.53
2022-11-29T16:20:28.769Z,17.52
2022-11-29T16:23:15.857Z,17.50
2022-11-29T16:26:04.680Z,17.42
2022-11-29T16:28:43.153Z,17.44
2022-11-29T16:31:19.357Z,17.42
2022-11-29T16:33:51.980Z,17.40
2022-11-29T16:36:25.422Z,17.45
2022-11-29T16:39:03.348Z,17.42
2022-11-29T16:41:39.744Z,17.46
2022-11-29T16:44:42.954Z,17.42
2022-11-29T16:47:27.906Z,17.45
2022-11-29T16:50:04.829Z,17.50
2022-11-29T16:52:36.512Z,17.51
2022-11-29T16:55:08.171Z,17.47
2022-11-29T16:57:39.058Z,17.52
2022-11-29T17:00:19.388Z,17.53
2022-11-29T17:02:50.930Z,17.56
2022-11-29T17:05:22.007Z,17.60
2022-11-29T17:07:53.264Z,17.59
2022-11-29T17:10:26.670Z,17.68
2022-11-29T17:12:57.841Z,17.72
2022-11-29T17:15:29.194Z,17.86
2022-11-29T17:18:00.293Z,17.84
2022-11-29T17:20:31.206Z,17.91
2022-11-29T17:23:01.966Z,17.97
2022-11-29T17:25:33.140Z,18.02
2022-11-29T17:28:04.430Z,18.09
2022-11-29T17:30:36.666Z,18.08
2022-11-29T17:33:09.100Z,18.12
2022-11-29T17:35:40.285Z,18.12
2022-11-29T17:38:11.388Z,18.15
2022-11-29T17:40:42.800Z,18.17
2022-11-29T17:43:13.859Z,18.15
2022-11-29T17:45:45.002Z,18.20
2022-11-29T17:48:16.954Z,18.26
2022-11-29T17:50:48.180Z,18.31
2022-11-29T17:53:19.268Z,18.38
2022-11-29T17:55:50.011Z,18.48
2022-11-29T17:58:21.159Z,18.52
2022-11-29T18:00:52.526Z,18.69
2022-11-29T18:03:23.626Z,18.65
2022-11-29T18:05:55.143Z,18.75
2022-11-29T18:08:26.034Z,18.78
2022-11-29T18:11:05.924Z,18.83
2022-11-29T18:13:37.972Z,18.90
2022-11-29T18:16:20.738Z,18.78
2022-11-29T18:19:01.050Z,18.81
2022-11-29T18:21:32.533Z,18.76
2022-11-29T18:24:03.402Z,18.88
2022-11-29T18:26:35.530Z,18.81
2022-11-29T18:29:07.653Z,18.83
2022-11-29T18:31:40.756Z,18.80
2022-11-29T18:34:13.188Z,18.83
2022-11-29T18:36:47.095Z,18.93
2022-11-29T18:39:21.131Z,18.92
2022-11-29T18:41:52.375Z,19.11
2022-11-29T18:44:25.702Z,19.07
2022-11-29T18:46:57.487Z,19.20
2022-11-29T18:49:28.488Z,19.15
2022-11-29T18:51:59.486Z,19.05
2022-11-29T18:54:32.492Z,19.14
2022-11-29T18:57:03.529Z,19.20
2022-11-29T18:59:34.772Z,19.12
2022-11-29T19:02:06.350Z,19.06
2022-11-29T19:04:38.570Z,19.14
2022-11-29T19:07:09.908Z,18.97
2022-11-29T19:09:40.906Z,18.96
2022-11-29T19:12:12.194Z,18.85
2022-11-29T19:14:48.116Z,18.81
2022-11-29T19:17:20.964Z,18.72
2022-11-29T19:19:51.994Z,18.43
2022-11-29T19:22:23.244Z,18.47
2022-11-29T19:24:56.890Z,18.33
2022-11-29T19:27:27.945Z,18.25
2022-11-29T19:29:58.666Z,18.17
2022-11-29T19:32:29.877Z,18.12
2022-11-29T19:35:00.835Z,18.07
2022-11-29T19:37:33.531Z,18.03
2022-11-29T19:40:04.381Z,18.07
2022-11-29T19:42:35.723Z,18.05
2022-11-29T19:45:17.162Z,18.05
2022-11-29T19:47:48.658Z,18.17
2022-11-29T19:50:19.386Z,18.19
2022-11-29T19:52:50.646Z,18.25
2022-11-29T19:55:21.501Z,18.15
2022-11-29T19:57:52.488Z,18.20
2022-11-29T20:00:23.853Z,18.29
2022-11-29T20:02:55.440Z,18.29
2022-11-29T20:05:28.638Z,18.41
2022-11-29T20:07:59.498Z,18.46
2022-11-29T20:10:30.495Z,18.42
2022-11-29T20:13:01.725Z,18.47
2022-11-29T20:15:32.477Z,18.45
2022-11-29T20:18:03.871Z,19.11
2022-11-29T20:20:35.875Z,19.47
2022-11-29T20:23:06.141Z,19.97
2022-11-29T20:25:37.881Z,19.89
2022-11-29T20:28:08.686Z,20.32
2022-11-29T20:30:39.451Z,19.92
2022-11-29T20:33:13.947Z,20.21
2022-11-29T20:35:44.947Z,19.80
2022-11-29T20:38:44.648Z,19.33
2022-11-29T20:41:56.470Z,19.27
2022-11-29T20:44:39.541Z,19.21
2022-11-29T20:47:17.630Z,19.08
2022-11-29T20:49:49.117Z,18.89
2022-11-29T20:52:44.481Z,18.45
2022-11-29T20:55:15.935Z,18.34
2022-11-29T20:57:46.825Z,18.39
2022-11-29T21:00:18.402Z,18.27
2022-11-29T21:02:49.415Z,18.29
2022-11-29T21:05:22.915Z,18.33
2022-11-29T21:07:54.041Z,18.11
2022-11-29T21:10:25.071Z,18.21
2022-11-29T21:12:56.395Z,18.01
2022-11-29T21:15:27.313Z,18.02
2022-11-29T21:17:58.413Z,17.87
2022-11-29T21:20:30.702Z,17.80
2022-11-29T21:23:01.304Z,17.66
2022-11-29T21:25:45.769Z,17.65
2022-11-29T21:28:18.673Z,17.63
2022-11-29T21:30:49.766Z,17.56
2022-11-29T21:33:21.213Z,17.54
2022-11-29T21:35:55.237Z,17.52
2022-11-29T21:38:27.177Z,17.52
2022-11-29T21:40:58.417Z,17.73
2022-11-29T21:43:57.938Z,17.81
2022-11-29T21:46:21.538Z,18.00
2022-11-29T21:48:54.365Z,17.94
2022-11-29T21:51:25.549Z,18.21
2022-11-29T21:53:56.454Z,18.61
2022-11-29T21:56:27.425Z,18.61
2022-11-29T21:58:58.752Z,18.50
2022-11-29T22:01:30.792Z,18.55
2022-11-29T22:04:01.802Z,19.55
2022-11-29T22:06:33.709Z,19.40
2022-11-29T22:09:05.558Z,20.54
2022-11-29T22:11:36.871Z,20.39
2022-11-29T22:14:16.535Z,20.78
2022-11-29T22:16:55.548Z,21.17
2022-11-29T22:19:31.276Z,21.07
2022-11-29T22:22:03.754Z,21.67
2022-11-29T22:24:36.723Z,21.92
2022-11-29T22:27:08.627Z,22.43
2022-11-29T22:29:40.164Z,22.56
2022-11-29T22:32:11.391Z,22.32
2022-11-29T22:34:42.369Z,22.35
2022-11-29T22:37:14.045Z,22.60
2022-11-29T22:39:44.942Z,22.10
2022-11-29T22:42:16.041Z,22.68
2022-11-29T22:44:47.107Z,22.19
2022-11-29T22:47:18.262Z,22.10
2022-11-29T22:49:51.012Z,22.62
2022-11-29T22:52:21.949Z,22.64
2022-11-29T22:54:53.083Z,22.38
2022-11-29T22:57:24.014Z,23.02
2022-11-29T22:59:54.727Z,22.24
2022-11-29T23:02:25.623Z,22.80
2022-11-29T23:04:56.860Z,22.54
2022-11-29T23:07:27.988Z,22.15
2022-11-29T23:09:58.719Z,22.01
2022-11-29T23:12:29.957Z,21.93
2022-11-29T23:15:00.852Z,22.03
2022-11-29T23:17:34.563Z,21.95
2022-11-29T23:20:06.251Z,21.85
2022-11-29T23:22:40.739Z,21.78
2022-11-29T23:25:12.034Z,21.34
2022-11-29T23:27:42.983Z,21.40
2022-11-29T23:30:15.012Z,21.18
2022-11-29T23:32:46.230Z,21.32
2022-11-29T23:35:17.274Z,20.99
2022-11-29T23:37:48.316Z,21.02
2022-11-29T23:40:19.279Z,20.79
2022-11-29T23:42:59.068Z,20.61
2022-11-29T23:45:30.203Z,20.49
2022-11-29T23:48:01.007Z,20.19
2022-11-29T23:50:31.945Z,19.92
2022-11-29T23:53:03.296Z,19.90
2022-11-29T23:55:34.228Z,19.66
2022-11-29T23:58:05.335Z,19.43
